Lake Levels
Share |
Lake Levels
LAKES RIVERS MARINAS NEWS HOUSES EVENTS CLASSIFIEDS MAPS
1,646 Lakes:
Lake Store

Lake Levels

LakeLevels.info is a national information and alert service for lake water levels in the United States. With a FREE member account you can receive water level alerts by email when the water level reaches your desired alert level.


We currently offer Lake Level information and alerts for 91 lakes and serve 9,317 members with 22,912 alerts.


Sign-up for a Lake Level Alert




Filter By State:
Lake Name Current
Level
Full Pool +/-
Full Pool
Reading
Date - Time
Alan Henry (TX) 2,210.34 2,224.00 -13.66 11/24/2014  1:30:00 AM
Amistad (TX) 1,086.59 1,117.00 -30.41 11/24/2014  3:15:00 AM
Amon Carter (TX) 912.19 920.00 -7.81 11/24/2014  3:00:00 AM
Aquilla (TX) 535.14 537.50 -2.36 11/24/2014  5:30:00 AM
Arlington (TX) 539.26 550.00 -10.74 11/24/2014  12:00:00 AM
Arrowhead (TX) 906.43 926.00 -19.57 11/24/2014  12:00:00 AM
Athens (TX) 438.36 440.00 -1.64 11/24/2014  4:30:00 AM
Austin (TX) 491.87 492.80 -0.93 11/22/2014  10:20:00 AM
Bardwell (TX) 418.75 421.00 -2.25 11/24/2014  5:30:00 AM
Belton (TX) 581.96 594.00 -12.04 11/24/2014  6:00:00 AM
Benbrook (TX) 685.81 694.00 -8.19 11/24/2014  5:00:00 AM
Bob Sandlin (TX) 334.71 337.50 -2.79 11/23/2014  9:49:00 AM
Bonham (TX) 561.79 565.00 -3.21 11/24/2014  6:00:00 AM
Brady Creek (TX) 1,726.99 1,743.00 -16.01 11/24/2014  6:45:00 AM
Bridgeport (TX) 812.17 836.00 -23.83 11/24/2014  6:00:00 AM
Brownwood (TX) 1,412.18 1,425.00 -12.82 11/24/2014  6:30:00 AM
Buchanan (TX) 986.15 1,020.50 -34.35 11/22/2014  10:20:00 AM
Caddo (LA TX) 169.15 168.50 0.65 11/23/2014  8:00:00 AM
Canyon (TX) 897.10 909.00 -11.90 11/24/2014  3:15:00 AM
Cedar Creek (TX) 316.09 ??? 11/24/2014  6:45:00 AM
Champion Creek (TX) 2,035.33 2,083.00 -47.67 11/23/2014  8:28:00 AM
Cherokee (TX) 277.70 280.00 -2.30 11/23/2014  7:00:00 AM
Choke Canyon (TX) 192.68 220.50 -27.82 11/23/2014  7:30:00 AM
Cisco (TX) 1,502.58 1,520.00 -17.42 11/24/2014  12:30:00 PM
Coleman (TX) 1,698.57 1,718.00 -19.43 11/24/2014  4:30:00 AM
Coleto Creek (TX) 93.46 98.28 -4.82 11/24/2014  2:00:00 AM
Colorado City (TX) 2,047.43 2,070.20 -22.77 11/23/2014  8:28:00 AM
Conroe (TX) 200.28 201.00 -0.72 11/24/2014  5:45:00 AM
Corpus Christi (TX) 86.18 94.00 -7.82 11/23/2014  9:32:00 AM
E. V. Spence (TX) 1,825.86 1,898.00 -72.14 11/24/2014  4:00:00 AM
Eagle Mountain (TX) 638.71 649.00 -10.29 11/24/2014  5:45:00 AM
Falcon (TX) 271.13 301.20 -30.07 11/22/2014  10:20:00 AM
Fork (TX) 395.98 403.00 -7.02 11/24/2014  6:30:00 AM
Georgetown (TX) 777.09 791.00 -13.91 11/24/2014  3:00:00 AM
Graham (TX) 1,060.70 1,075.00 -14.30 11/24/2014  6:00:00 AM
Granbury (TX) 682.77 693.00 -10.23 11/24/2014  6:30:00 AM
Granger (TX) 505.65 504.00 1.65 11/24/2014  3:00:00 AM
Grapevine (TX) 522.61 535.00 -12.39 11/24/2014  6:45:00 AM
Hords Creek (TX) 1,886.13 1,900.00 -13.87 11/24/2014  3:30:00 AM
Houston (TX) 42.33 41.70 0.63 11/24/2014  6:30:00 AM
Hubbard Creek (TX) 1,153.98 1,183.00 -29.02 11/24/2014  2:15:00 AM
Hubert M Moss (TX) 710.99 715.00 -4.01 11/24/2014  5:15:00 AM
Inks (TX) 887.21 886.90 0.31 11/24/2014  2:00:00 AM
Jacksonville (TX) 421.45 422.00 -0.55 11/23/2014  9:49:00 AM
JB Thomas (TX) 2,239.55 2,258.00 -18.45 11/24/2014  5:45:00 AM
Jim Chapman (TX) 427.46 440.00 -12.54 11/23/2014  9:49:00 AM
Joe Pool (TX) 520.06 522.00 -1.94 11/24/2014  6:00:00 AM
Lake O' the Pines (TX) 228.16 228.50 -0.34 11/23/2014  9:49:00 AM
Lavon (TX) 479.27 492.00 -12.73 11/24/2014  2:00:00 AM
Leon (TX) 1,367.52 ??? 11/24/2014  6:45:00 AM
Lewisville (TX) 514.62 522.00 -7.38 11/24/2014  2:30:00 AM
Limestone (TX) 360.98 363.00 -2.02 11/24/2014  5:45:00 AM
Livingston (TX) 131.07 131.00 0.07 11/24/2014  6:15:00 AM
Lyndon B. Johnson (TX) 824.62 825.00 -0.38 11/22/2014  10:20:00 AM
MacKenzie (TX) 3,009.88 3,100.00 -90.12 11/24/2014  6:30:00 AM
Marble Falls (TX) 736.30 737.00 -0.70 11/22/2014  10:20:00 AM
Martin Creek (TX) 304.08 306.00 -1.92 11/24/2014  6:30:00 AM
Medina (TX) 975.33 1,062.00 -86.67 11/24/2014  5:00:00 AM
Meredith (TX) 2,857.65 2,941.00 -83.35 11/24/2014  6:30:00 AM
Mexia (TX) 447.81 448.30 -0.49 11/24/2014  2:15:00 AM
Mineral Wells (TX) 855.12 863.00 -7.88 11/24/2014  10:30:00 AM
Moss Creek (TX) 2,328.20 2,337.00 -8.80 11/24/2014  6:45:00 AM
Murvaul (TX) 265.13 265.50 -0.37 11/23/2014  9:49:00 AM
Nacogdoches (TX) 278.22 279.00 -0.78 11/23/2014  9:49:00 AM
Natural Dam Salt (TX) 2,447.33 2,457.00 -9.67 11/23/2014  8:28:00 AM
Nocona (TX) 813.61 827.00 -13.39 11/24/2014  5:00:00 AM
O.H. Ivie (TX) 1,509.19 1,551.50 -42.31 11/24/2014  6:15:00 AM
Palestine (TX) 344.25 345.00 -0.75 11/23/2014  9:49:00 AM
Palo Pinto (TX) 848.18 867.00 -18.82 11/24/2014  6:15:00 AM
Pat Cleburne (TX) 727.45 733.60 -6.15 11/24/2014  5:00:00 AM
Pat Mayse (TX) 449.02 451.00 -1.98 11/23/2014  9:49:00 AM
Possum Kingdom (TX) 985.01 1,000.00 -14.99 11/23/2014  9:30:00 AM
Proctor (TX) 1,149.55 1,162.00 -12.45 11/24/2014  6:30:00 AM
Ray Hubbard (TX) 425.28 435.50 -10.22 11/24/2014  6:30:00 AM
Ray Roberts (TX) 624.69 632.50 -7.81 11/24/2014  12:15:00 AM
Red Bluff (TX) 2,824.08 2,827.13 -3.05 11/23/2014  8:28:00 AM
Richland Chambers (TX) 304.79 315.00 -10.21 11/23/2014  9:30:00 AM
Sam Rayburn (TX) 161.41 164.40 -2.99 11/24/2014  4:00:00 AM
Somerville (TX) 237.19 238.00 -0.81 11/24/2014  3:00:00 AM
Tawakoni (TX) 425.65 437.50 -11.85 11/24/2014  6:30:00 AM
Texana (TX) 39.95 44.00 -4.05 11/24/2014  5:00:00 AM
Texoma (TX) 610.34 617.00 -6.66 11/24/2014  6:00:00 AM
Toledo Bend (TX LA) 168.25 172.00 -3.75 11/24/2014  6:30:00 AM
Travis (TX) 623.59 681.00 -57.41 11/24/2014  6:00:00 AM
Twin Buttes (TX) 1,892.39 1,940.00 -47.61 11/24/2014  12:00:00 AM
Tyler (TX) 374.72 375.50 -0.78 11/23/2014  9:49:00 AM
Waco (TX) 459.03 462.00 -2.97 11/23/2014  10:15:00 AM
White River (TX) 2,343.36 ??? 11/24/2014  6:15:00 AM
Whitney (TX) 522.49 533.00 -10.51 11/24/2014  12:15:00 AM
Worth (TX) 590.78 594.00 -3.22 11/24/2014  6:00:00 AM
Wright Patman (TX) 224.40 220.60 3.80 11/23/2014  9:49:00 AM


Current Daily Streamflow Conditions
High
90th percentile
75th - 89th percentile
25th - 74th percentile
10th - 24th percentile
10th percentile
Low
Not ranked

The colored dots on this map depict streamflow conditions as a percentile, which is computed from the period of record for the current day of the year. Only stations with at least 30 years of record are used. The gray circles indicate other stations that were not ranked in percentiles either because they have fewer than 30 years of record or because they report parameters other than streamflow. Some stations, for example, measure stage only.
TX Daily Streamflow Conditions



U.S. Drought Monitor